Time;durP1;ratioP1;P1;durP2;ratioP2;P2;SDS_P1;SDS_P2;PMS_P1;PMS_P2;Temp;Humidity;BMP_temperature;BMP_pressure;BME280_temperature;BME280_humidity;BME280_pressure;Samples;Min_cycle;Max_cycle;Signal;HPM_P1;HPM_P2
2022/06/16 00:01:04;;;;;;;;;;;;;;;;;;4959540;28;20008;-64
2022/06/16 00:03:30;;;;;;;;;;;;;;;;;;4979128;28;20029;-63
2022/06/16 00:05:56;;;;;;;;;;;;;;;;;;4997686;28;19922;-64
2022/06/16 00:08:22;;;;;;;;;;;;;;;;;;4999668;28;19922;-63
2022/06/16 00:13:33;;;;;;;;;;;;;;;;;;4999868;28;19961;-63
2022/06/16 00:15:59;;;;;;;;;;;;;;;;;;4997312;28;19972;-64
2022/06/16 00:18:25;;;;;;;;;;;;;;;;;;4999706;28;20012;-64
2022/06/16 00:20:51;;;;;;;;;;;;;;;;;;4998568;28;19963;-64
2022/06/16 00:23:16;;;;;;;;;;;;;;;;;;4999807;28;19976;-64
2022/06/16 00:25:42;;;;;;;;;;;;;;;;;;4997979;28;19968;-63
2022/06/16 00:28:09;;;;;;;;;;;;;;;;;;4999192;28;19918;-64
2022/06/16 00:30:34;;;;;;;;;;;;;;;;;;4997689;28;19945;-63
2022/06/16 00:33:00;;;;;;;;;;;;;;;;;;4999009;28;20345;-64
2022/06/16 00:35:26;;;;;;;;;;;;;;;;;;4997976;28;20367;-64
2022/06/16 00:37:55;;;;;;;;;;;;;;;;;;5000059;28;20365;-64
2022/06/16 00:40:21;;;;;;;;;;;;;;;;;;4998392;28;19924;-64
2022/06/16 00:42:47;;;;;;;;;;;;;;;;;;4982807;28;19918;-64
2022/06/16 00:45:13;;;;;;;;;;;;;;;;;;4999878;28;20005;-64
2022/06/16 00:47:39;;;;;;;;;;;;;;;;;;4997519;28;19924;-63
2022/06/16 00:50:05;;;;;;;;;;;;;;;;;;4982258;28;19929;-64
2022/06/16 00:52:31;;;;;;;;;;;;;;;;;;4997877;28;19917;-63
2022/06/16 00:54:57;;;;;;;;;;;;;;;;;;4999807;28;19917;-65
2022/06/16 00:57:23;;;;;;;;;;;;;;;;;;4980846;28;19924;-63
2022/06/16 00:59:50;;;;;;;;;;;;;;;;;;4999513;28;19953;-64
2022/06/16 01:02:16;;;;;;;;;;;;;;;;;;4998312;28;19963;-64
2022/06/16 01:04:51;;;;;;;;;;;;;;;;;;4999731;28;19972;-64
2022/06/16 01:07:17;;;;;;;;;;;;;;;;;;4998524;28;19917;-63
2022/06/16 01:09:43;;;;;;;;;;;;;;;;;;4999937;28;20317;-64
2022/06/16 01:14:57;;;;;;;;;;;;;;;;;;4994196;28;20341;-63
2022/06/16 01:17:23;;;;;;;;;;;;;;;;;;4993644;28;20012;-63
2022/06/16 01:19:49;;;;;;;;;;;;;;;;;;4979482;28;19918;-64
2022/06/16 01:22:15;;;;;;;;;;;;;;;;;;4995045;28;19976;-64
2022/06/16 01:24:40;;;;;;;;;;;;;;;;;;4978710;28;20353;-64
2022/06/16 01:27:06;;;;;;;;;;;;;;;;;;4993690;28;20376;-64
2022/06/16 01:29:35;;;;;;;;;;;;;;;;;;4995770;28;19980;-64
2022/06/16 01:32:01;;;;;;;;;;;;;;;;;;4995008;28;20379;-64
2022/06/16 01:34:27;;;;;;;;;;;;;;;;;;4993516;28;19918;-64
2022/06/16 01:36:53;;;;;;;;;;;;;;;;;;4994626;28;19917;-64
2022/06/16 01:39:19;;;;;;;;;;;;;;;;;;4996152;28;19921;-64
2022/06/16 01:41:45;;;;;;;;;;;;;;;;;;4994221;28;19921;-64
2022/06/16 01:44:11;;;;;;;;;;;;;;;;;;4995814;28;19918;-64
2022/06/16 01:46:37;;;;;;;;;;;;;;;;;;4993619;28;19932;-64
2022/06/16 01:49:03;;;;;;;;;;;;;;;;;;4978671;28;20285;-64
2022/06/16 01:51:29;;;;;;;;;;;;;;;;;;4994252;28;19918;-64
2022/06/16 01:53:55;;;;;;;;;;;;;;;;;;4962782;28;19945;-64
2022/06/16 01:56:21;;;;;;;;;;;;;;;;;;4995665;28;19925;-65
2022/06/16 01:58:47;;;;;;;;;;;;;;;;;;4993365;28;19993;-64
2022/06/16 02:01:14;;;;;;;;;;;;;;;;;;4995565;28;20016;-65
2022/06/16 02:03:40;;;;;;;;;;;;;;;;;;4993893;28;19918;-64
2022/06/16 02:06:06;;;;;;;;;;;;;;;;;;4994640;28;19939;-64
2022/06/16 02:08:32;;;;;;;;;;;;;;;;;;4993965;28;19964;-64
2022/06/16 02:10:58;;;;;;;;;;;;;;;;;;4978374;28;19918;-64
2022/06/16 02:13:24;;;;;;;;;;;;;;;;;;4976999;28;19918;-64
2022/06/16 02:15:51;;;;;;;;;;;;;;;;;;4977769;28;19925;-64
2022/06/16 02:18:16;;;;;;;;;;;;;;;;;;4976641;28;20020;-65
2022/06/16 02:20:42;;;;;;;;;;;;;;;;;;4977728;28;20000;-64
2022/06/16 02:23:08;;;;;;;;;;;;;;;;;;4993913;28;19925;-64
2022/06/16 02:25:34;;;;;;;;;;;;;;;;;;4994867;28;19980;-64
2022/06/16 02:28:00;;;;;;;;;;;;;;;;;;4993555;28;19922;-64
2022/06/16 02:30:26;;;;;;;;;;;;;;;;;;4995333;28;19971;-64
2022/06/16 02:32:52;;;;;;;;;;;;;;;;;;4993413;28;19924;-64
2022/06/16 02:35:18;;;;;;;;;;;;;;;;;;4995110;28;19924;-64
2022/06/16 02:37:44;;;;;;;;;;;;;;;;;;4992963;28;19918;-64
2022/06/16 02:40:10;;;;;;;;;;;;;;;;;;4994972;28;19964;-64
2022/06/16 02:42:36;;;;;;;;;;;;;;;;;;4991569;28;20273;-64
2022/06/16 02:45:02;;;;;;;;;;;;;;;;;;4994612;28;20288;-64
2022/06/16 02:50:12;;;;;;;;;;;;;;;;;;4994835;28;19983;-64
2022/06/16 02:52:38;;;;;;;;;;;;;;;;;;4959973;28;20357;-63
2022/06/16 02:55:05;;;;;;;;;;;;;;;;;;4994608;28;20360;-64
2022/06/16 02:57:31;;;;;;;;;;;;;;;;;;4992189;28;19925;-63
2022/06/16 02:59:57;;;;;;;;;;;;;;;;;;4994228;28;19917;-64
2022/06/16 03:02:24;;;;;;;;;;;;;;;;;;4992664;28;19924;-63
2022/06/16 03:04:50;;;;;;;;;;;;;;;;;;4993468;28;19917;-64
2022/06/16 03:07:16;;;;;;;;;;;;;;;;;;4976614;28;19979;-64
2022/06/16 03:09:42;;;;;;;;;;;;;;;;;;4991977;28;19996;-63
2022/06/16 03:12:07;;;;;;;;;;;;;;;;;;4993658;28;20008;-63
2022/06/16 03:14:33;;;;;;;;;;;;;;;;;;4992311;28;19918;-63
2022/06/16 03:17:01;;;;;;;;;;;;;;;;;;4993490;28;19943;-64
2022/06/16 03:19:27;;;;;;;;;;;;;;;;;;4990913;28;19925;-64
2022/06/16 03:21:54;;;;;;;;;;;;;;;;;;4992949;28;19992;-64
2022/06/16 03:24:20;;;;;;;;;;;;;;;;;;4974161;28;19917;-64
2022/06/16 03:26:49;;;;;;;;;;;;;;;;;;4992165;28;19960;-63
2022/06/16 03:29:15;;;;;;;;;;;;;;;;;;4991420;28;20325;-64
2022/06/16 03:31:41;;;;;;;;;;;;;;;;;;4992383;28;19922;-63
2022/06/16 03:34:07;;;;;;;;;;;;;;;;;;4991315;28;19918;-64
2022/06/16 03:36:33;;;;;;;;;;;;;;;;;;4992614;28;19968;-63
2022/06/16 03:39:00;;;;;;;;;;;;;;;;;;4989929;28;20013;-63
2022/06/16 03:41:26;;;;;;;;;;;;;;;;;;4992464;28;20332;-64
2022/06/16 03:43:52;;;;;;;;;;;;;;;;;;4990810;28;20041;-64
2022/06/16 03:46:20;;;;;;;;;;;;;;;;;;4974531;28;19922;-64
2022/06/16 03:48:46;;;;;;;;;;;;;;;;;;4990717;28;19918;-63
2022/06/16 03:51:13;;;;;;;;;;;;;;;;;;4992632;28;19917;-64
2022/06/16 03:53:39;;;;;;;;;;;;;;;;;;4973719;28;19925;-63
2022/06/16 03:56:05;;;;;;;;;;;;;;;;;;4975591;28;19929;-64
2022/06/16 03:58:31;;;;;;;;;;;;;;;;;;4990844;28;20258;-63
2022/06/16 04:00:57;;;;;;;;;;;;;;;;;;4992053;28;20277;-64
2022/06/16 04:06:07;;;;;;;;;;;;;;;;;;4992314;28;19917;-65
2022/06/16 04:08:33;;;;;;;;;;;;;;;;;;4956978;28;19917;-64
2022/06/16 04:10:59;;;;;;;;;;;;;;;;;;4990548;28;20071;-65
2022/06/16 04:13:25;;;;;;;;;;;;;;;;;;4991403;28;20384;-63
2022/06/16 04:15:51;;;;;;;;;;;;;;;;;;4991571;28;19918;-64
2022/06/16 04:18:17;;;;;;;;;;;;;;;;;;4992210;28;19964;-63
2022/06/16 04:20:43;;;;;;;;;;;;;;;;;;4990374;28;19918;-63
2022/06/16 04:23:10;;;;;;;;;;;;;;;;;;4990596;28;19918;-63
2022/06/16 04:25:36;;;;;;;;;;;;;;;;;;4991079;28;19918;-64
2022/06/16 04:28:02;;;;;;;;;;;;;;;;;;4989755;28;19918;-65
2022/06/16 04:30:28;;;;;;;;;;;;;;;;;;4988329;28;19925;-64
2022/06/16 04:32:54;;;;;;;;;;;;;;;;;;4990920;28;19917;-63
2022/06/16 04:35:20;;;;;;;;;;;;;;;;;;4990655;28;19917;-64
2022/06/16 04:37:46;;;;;;;;;;;;;;;;;;4992003;28;19922;-63
2022/06/16 04:40:15;;;;;;;;;;;;;;;;;;4990811;28;19925;-64
2022/06/16 04:42:40;;;;;;;;;;;;;;;;;;4992148;28;19917;-64
2022/06/16 04:45:07;;;;;;;;;;;;;;;;;;4990123;28;19971;-64
2022/06/16 04:47:32;;;;;;;;;;;;;;;;;;4992027;28;19917;-64
2022/06/16 04:49:58;;;;;;;;;;;;;;;;;;4991547;28;20030;-64
2022/06/16 04:52:24;;;;;;;;;;;;;;;;;;4996013;28;19925;-64
2022/06/16 04:54:51;;;;;;;;;;;;;;;;;;4994137;28;20000;-63
2022/06/16 04:57:16;;;;;;;;;;;;;;;;;;4995733;28;19924;-65
2022/06/16 04:59:42;;;;;;;;;;;;;;;;;;4994365;28;19918;-64
2022/06/16 05:02:08;;;;;;;;;;;;;;;;;;4995229;28;20005;-64
2022/06/16 05:04:37;;;;;;;;;;;;;;;;;;4994094;28;19925;-64
2022/06/16 05:07:03;;;;;;;;;;;;;;;;;;4995183;28;19961;-63
2022/06/16 05:09:29;;;;;;;;;;;;;;;;;;4994121;28;20387;-64
2022/06/16 05:11:55;;;;;;;;;;;;;;;;;;4977774;28;19926;-64
2022/06/16 05:14:21;;;;;;;;;;;;;;;;;;4993329;28;19925;-64
2022/06/16 05:16:47;;;;;;;;;;;;;;;;;;4976649;28;20392;-64
2022/06/16 05:19:13;;;;;;;;;;;;;;;;;;4974775;28;19949;-64
2022/06/16 05:21:39;;;;;;;;;;;;;;;;;;4977631;28;19925;-64
2022/06/16 05:24:05;;;;;;;;;;;;;;;;;;4957672;28;20337;-63
2022/06/16 05:26:31;;;;;;;;;;;;;;;;;;4988331;28;19917;-64
2022/06/16 05:28:57;;;;;;;;;;;;;;;;;;4974216;28;19940;-64
2022/06/16 05:31:23;;;;;;;;;;;;;;;;;;4975300;28;19926;-64
2022/06/16 05:33:49;;;;;;;;;;;;;;;;;;4963054;28;20008;-64
2022/06/16 05:36:17;;;;;;;;;;;;;;;;;;4992276;28;19921;-64
2022/06/16 05:38:43;;;;;;;;;;;;;;;;;;4994381;28;19928;-63
2022/06/16 05:41:10;;;;;;;;;;;;;;;;;;4971079;28;19917;-64
2022/06/16 05:43:36;;;;;;;;;;;;;;;;;;5005558;23;19917;-67
2022/06/16 05:46:02;;;;;;;;;;;;;;;;;;5011232;28;19917;-68
2022/06/16 05:48:28;;;;;;;;;;;;;;;;;;4989807;28;20320;-69
2022/06/16 05:50:54;;;;;;;;;;;;;;;;;;5002334;28;19921;-70
2022/06/16 05:53:20;;;;;;;;;;;;;;;;;;5023197;28;20017;-73
2022/06/16 05:55:46;;;;;;;;;;;;;;;;;;5015312;28;20330;-68
2022/06/16 05:58:12;;;;;;;;;;;;;;;;;;5015211;28;19917;-68
2022/06/16 06:00:38;;;;;;;;;;;;;;;;;;5017281;28;19925;-68
2022/06/16 06:03:07;;;;;;;;;;;;;;;;;;5023439;28;19917;-68
2022/06/16 06:05:33;;;;;;;;;;;;;;;;;;5024583;28;19929;-68
2022/06/16 06:16:25;;;;;;;;;;;;;;;;;;5013000;28;19970;-68
2022/06/16 06:18:51;;;;;;;;;;;;;;;;;;5031056;28;19921;-69
2022/06/16 06:21:57;;;;;;;;;;;;;;;;;;5030853;28;20100;-69
2022/06/16 06:24:03;;;;;;;;;;;;;;;;;;5030563;28;19958;-69
2022/06/16 06:26:38;;;;;;;;;;;;;;;;;;5030540;28;19921;-69
2022/06/16 06:29:04;;;;;;;;;;;;;;;;;;5011718;28;19940;-68
2022/06/16 06:31:30;;;;;;;;;;;;;;;;;;5030963;28;19921;-69
2022/06/16 06:33:56;;;;;;;;;;;;;;;;;;5013234;28;19921;-69
2022/06/16 06:36:22;;;;;;;;;;;;;;;;;;5030350;28;20036;-69
2022/06/16 06:38:48;;;;;;;;;;;;;;;;;;5030349;28;20015;-70
2022/06/16 06:41:14;;;;;;;;;;;;;;;;;;5030034;28;19924;-69
2022/06/16 06:43:43;;;;;;;;;;;;;;;;;;5030516;28;19928;-70
2022/06/16 06:46:09;;;;;;;;;;;;;;;;;;5030644;28;19929;-69
2022/06/16 06:48:35;;;;;;;;;;;;;;;;;;5030865;28;19928;-68
2022/06/16 06:51:04;;;;;;;;;;;;;;;;;;5030469;28;19925;-67
2022/06/16 06:53:30;;;;;;;;;;;;;;;;;;5030836;28;19997;-67
2022/06/16 06:55:56;;;;;;;;;;;;;;;;;;5030577;28;20305;-67
2022/06/16 06:58:22;;;;;;;;;;;;;;;;;;5030083;28;20441;-67
2022/06/16 07:00:51;;;;;;;;;;;;;;;;;;5030398;28;19932;-68
2022/06/16 07:03:17;;;;;;;;;;;;;;;;;;5011881;28;20035;-69
2022/06/16 07:05:43;;;;;;;;;;;;;;;;;;5029404;28;19932;-68
2022/06/16 07:08:09;;;;;;;;;;;;;;;;;;5010573;28;19921;-68
2022/06/16 07:10:35;;;;;;;;;;;;;;;;;;5029804;28;19928;-68
2022/06/16 07:13:01;;;;;;;;;;;;;;;;;;5029300;28;19925;-79
2022/06/16 07:15:27;;;;;;;;;;;;;;;;;;5010733;28;19924;-68
2022/06/16 07:17:53;;;;;;;;;;;;;;;;;;5028641;28;20317;-69
2022/06/16 07:20:19;;;;;;;;;;;;;;;;;;5028573;28;19921;-70
2022/06/16 07:22:45;;;;;;;;;;;;;;;;;;5029835;28;19921;-70
2022/06/16 07:25:11;;;;;;;;;;;;;;;;;;5011433;28;19928;-65
2022/06/16 07:27:36;;;;;;;;;;;;;;;;;;5012579;28;19997;-65
2022/06/16 07:30:02;;;;;;;;;;;;;;;;;;5012323;28;19925;-64
2022/06/16 07:32:28;;;;;;;;;;;;;;;;;;5029369;28;19928;-64
2022/06/16 07:34:54;;;;;;;;;;;;;;;;;;5029805;28;19921;-67
2022/06/16 07:37:20;;;;;;;;;;;;;;;;;;5028722;28;19925;-66
2022/06/16 07:39:46;;;;;;;;;;;;;;;;;;5028979;28;20368;-66
2022/06/16 07:42:12;;;;;;;;;;;;;;;;;;5028871;28;19920;-65
2022/06/16 07:44:38;;;;;;;;;;;;;;;;;;5029474;28;19999;-65
2022/06/16 07:47:04;;;;;;;;;;;;;;;;;;5028837;28;20391;-66
2022/06/16 07:49:31;;;;;;;;;;;;;;;;;;5028646;28;20314;-65
2022/06/16 07:52:00;;;;;;;;;;;;;;;;;;5027892;28;20327;-68
2022/06/16 07:54:26;;;;;;;;;;;;;;;;;;5027556;28;19921;-67
2022/06/16 07:56:52;;;;;;;;;;;;;;;;;;5028043;28;19937;-66
2022/06/16 07:59:18;;;;;;;;;;;;;;;;;;5026261;28;19980;-66
2022/06/16 08:01:44;;;;;;;;;;;;;;;;;;5027408;28;19931;-65
2022/06/16 08:04:10;;;;;;;;;;;;;;;;;;5028589;28;20376;-73
2022/06/16 08:06:36;;;;;;;;;;;;;;;;;;5009886;28;19928;-66
2022/06/16 08:09:02;;;;;;;;;;;;;;;;;;5027313;28;19976;-66
2022/06/16 08:14:13;;;;;;;;;;;;;;;;;;5008043;28;19927;-66
2022/06/16 08:16:39;;;;;;;;;;;;;;;;;;5008312;28;20291;-66
2022/06/16 08:19:04;;;;;;;;;;;;;;;;;;5008659;28;19921;-65
2022/06/16 08:21:30;;;;;;;;;;;;;;;;;;5007754;28;19929;-65
2022/06/16 08:23:59;;;;;;;;;;;;;;;;;;5026850;28;20041;-66
2022/06/16 08:26:25;;;;;;;;;;;;;;;;;;5031168;28;20054;-65
2022/06/16 08:28:51;;;;;;;;;;;;;;;;;;5030789;28;19921;-79
2022/06/16 08:31:20;;;;;;;;;;;;;;;;;;4997084;28;20315;-75
2022/06/16 08:33:46;;;;;;;;;;;;;;;;;;5031653;28;20004;-71
2022/06/16 08:36:12;;;;;;;;;;;;;;;;;;5032156;28;20279;-72
2022/06/16 08:38:38;;;;;;;;;;;;;;;;;;5030640;28;20233;-68
2022/06/16 08:41:15;;;;;;;;;;;;;;;;;;5030676;28;20004;-80
2022/06/16 08:43:41;;;;;;;;;;;;;;;;;;4997443;28;20348;-74
2022/06/16 08:46:07;;;;;;;;;;;;;;;;;;5030009;28;19921;-75
2022/06/16 08:48:33;;;;;;;;;;;;;;;;;;5030498;28;20091;-71
2022/06/16 08:51:00;;;;;;;;;;;;;;;;;;5012197;28;19921;-69
2022/06/16 08:53:26;;;;;;;;;;;;;;;;;;5030098;28;19940;-77
2022/06/16 08:55:52;;;;;;;;;;;;;;;;;;5013222;28;19921;-74
2022/06/16 08:58:18;;;;;;;;;;;;;;;;;;5013332;28;19921;-79
2022/06/16 09:00:44;;;;;;;;;;;;;;;;;;5033146;28;20423;-92
2022/06/16 09:03:10;;;;;;;;;;;;;;;;;;5014808;28;20317;-68
2022/06/16 09:05:36;;;;;;;;;;;;;;;;;;5013922;28;20000;-73
2022/06/16 09:08:05;;;;;;;;;;;;;;;;;;5015341;28;19924;-72
2022/06/16 09:10:33;;;;;;;;;;;;;;;;;;5032583;28;19947;-75
2022/06/16 09:12:59;;;;;;;;;;;;;;;;;;5033024;28;20026;-76
2022/06/16 09:15:25;;;;;;;;;;;;;;;;;;5032313;28;19964;-77
2022/06/16 09:17:51;;;;;;;;;;;;;;;;;;5014553;28;19921;-76
2022/06/16 09:20:18;;;;;;;;;;;;;;;;;;5032309;28;20353;-80
2022/06/16 09:22:44;;;;;;;;;;;;;;;;;;5014256;28;19921;-78
2022/06/16 09:25:10;;;;;;;;;;;;;;;;;;4997751;28;19928;-76
2022/06/16 09:27:36;;;;;;;;;;;;;;;;;;5013148;28;19932;-78
2022/06/16 09:30:02;;;;;;;;;;;;;;;;;;5032172;28;19921;-77
2022/06/16 09:32:28;;;;;;;;;;;;;;;;;;5014575;28;19943;-78
2022/06/16 09:34:55;;;;;;;;;;;;;;;;;;5032213;28;19921;-82
2022/06/16 09:37:20;;;;;;;;;;;;;;;;;;5030915;28;19921;-81
2022/06/16 09:39:46;;;;;;;;;;;;;;;;;;5032042;28;19928;-69
2022/06/16 09:44:57;;;;;;;;;;;;;;;;;;5032188;28;19921;-65
2022/06/16 09:47:24;;;;;;;;;;;;;;;;;;5031779;28;19921;-70
2022/06/16 09:49:50;;;;;;;;;;;;;;;;;;5031752;28;20322;-79
2022/06/16 09:52:16;;;;;;;;;;;;;;;;;;5031930;28;19928;-80
2022/06/16 09:54:42;;;;;;;;;;;;;;;;;;5032168;28;19987;-77
2022/06/16 09:57:08;;;;;;;;;;;;;;;;;;5032083;28;19921;-71
2022/06/16 09:59:34;;;;;;;;;;;;;;;;;;5012577;28;19921;-70
2022/06/16 10:02:00;;;;;;;;;;;;;;;;;;5031117;28;20015;-78
2022/06/16 10:04:26;;;;;;;;;;;;;;;;;;5030875;28;19921;-80
2022/06/16 10:06:53;;;;;;;;;;;;;;;;;;4996906;28;19978;-73
2022/06/16 10:09:19;;;;;;;;;;;;;;;;;;5013226;28;20012;-74
2022/06/16 10:11:45;;;;;;;;;;;;;;;;;;5030957;28;20004;-86
2022/06/16 10:14:12;;;;;;;;;;;;;;;;;;5013326;28;20361;-80
2022/06/16 10:16:37;;;;;;;;;;;;;;;;;;5031023;28;19993;-76
2022/06/16 10:19:06;;;;;;;;;;;;;;;;;;5030779;28;20287;-74
2022/06/16 10:21:32;;;;;;;;;;;;;;;;;;5012432;28;20341;-68
2022/06/16 10:23:58;;;;;;;;;;;;;;;;;;5031147;28;19928;-72
2022/06/16 10:26:26;;;;;;;;;;;;;;;;;;5013776;28;19920;-69
2022/06/16 10:28:53;;;;;;;;;;;;;;;;;;5030932;28;19921;-71
2022/06/16 10:31:19;;;;;;;;;;;;;;;;;;5013689;28;19972;-76
2022/06/16 10:33:45;;;;;;;;;;;;;;;;;;5013297;28;19960;-74
2022/06/16 10:36:11;;;;;;;;;;;;;;;;;;5030994;28;19991;-74
2022/06/16 10:41:29;;;;;;;9.88;4.18;;;;;;;;;;5107142;27;20612;-68
2022/06/16 10:43:56;;;;;;;9.50;3.88;;;;;;;;;;5106953;28;20499;-66
2022/06/16 10:46:27;;;;;;;11.55;4.10;;;;;;;;;;5106340;28;20059;-67
2022/06/16 10:48:55;;;;;;;12.52;4.25;;;;;;;;;;5103968;28;20128;-68
2022/06/16 10:51:25;;;;;;;13.07;4.22;;;;;;;;;;5106143;28;20048;-78
2022/06/16 10:53:51;;;;;;;11.20;3.90;;;;;;;;;;5087832;28;20109;-77
2022/06/16 10:56:18;;;;;;;;;;;;;;;;;;5107156;28;20048;-76
2022/06/16 10:58:47;;;;;;;11.75;3.83;;;;;;;;;;5105841;28;19920;-78
2022/06/16 11:01:24;;;;;;;11.52;4.25;;;;;;;;;;5106063;28;20055;-75
2022/06/16 11:03:51;;;;;;;11.70;3.88;;;;;;;;;;5105675;28;20097;-75
2022/06/16 11:06:22;;;;;;;10.85;3.88;;;;;;;;;;5106099;28;20081;-77
2022/06/16 11:08:51;;;;;;;12.55;4.15;;;;;;;;;;5105768;28;20058;-75
2022/06/16 11:11:31;;;;;;;11.07;4.25;;;;;;;;;;5105412;28;20043;-79
2022/06/16 11:13:58;;;;;;;9.45;4.18;;;;;;;;;;5105581;28;20127;-79
2022/06/16 11:16:29;;;;;;;11.57;3.65;;;;;;;;;;5138724;27;20048;-76
2022/06/16 11:18:58;;;;;;;9.57;4.03;;;;;;;;;;5104675;28;20050;-73
2022/06/16 11:21:28;;;;;;;20.20;5.35;;;;;;;;;;5105552;28;20059;-74
2022/06/16 11:23:56;;;;;;;24.17;5.55;;;;;;;;;;5104542;28;20127;-73
2022/06/16 11:26:29;;;;;;;11.82;4.43;;;;;;;;;;5105563;28;20109;-74
2022/06/16 11:29:01;;;;;;;22.23;5.22;;;;;;;;;;5105360;28;20305;-79
2022/06/16 11:31:44;;;;;;;11.95;4.60;;;;;;;;;;5105468;28;20358;-74
2022/06/16 11:34:13;;;;;;;17.77;4.05;;;;;;;;;;5105480;28;20051;-74
2022/06/16 11:37:00;;;;;;;12.27;4.47;;;;;;;;;;5104411;28;20100;-77
2022/06/16 11:39:26;;;;;;;;;;;;;;;;;;5106218;28;20114;-76
2022/06/16 11:41:53;;;;;;;15.48;4.63;;;;;;;;;;5124816;27;19975;-75
2022/06/16 11:44:42;;;;;;;14.63;4.60;;;;;;;;;;5125889;28;20044;-73
2022/06/16 11:47:31;;;;;;;12.77;4.50;;;;;;;;;;5125538;28;20047;-73
2022/06/16 11:50:02;;;;;;;11.68;4.00;;;;;;;;;;5086313;28;20043;-71
2022/06/16 11:52:28;;;;;;;11.40;4.00;;;;;;;;;;5093874;28;20058;-73
2022/06/16 11:54:54;;;;;;;;;;;;;;;;;;5111853;28;20375;-72
2022/06/16 11:57:25;;;;;;;12.63;4.18;;;;;;;;;;5111960;28;19919;-74
2022/06/16 11:59:51;;;;;;;11.77;3.90;;;;;;;;;;5111635;28;20040;-74
2022/06/16 12:02:17;;;;;;;;;;;;;;;;;;5112236;28;20134;-77
2022/06/16 12:04:51;;;;;;;11.77;3.90;;;;;;;;;;5092976;28;19966;-73
2022/06/16 12:07:32;;;;;;;13.52;4.80;;;;;;;;;;5111541;28;20082;-74
2022/06/16 12:10:13;;;;;;;11.52;4.30;;;;;;;;;;5110924;28;20135;-74
2022/06/16 12:12:46;;;;;;;10.93;4.47;;;;;;;;;;5112410;28;20237;-73
2022/06/16 12:15:26;;;;;;;11.57;4.90;;;;;;;;;;5094708;28;20058;-72
2022/06/16 12:18:01;;;;;;;11.30;4.90;;;;;;;;;;5110741;28;20118;-76
2022/06/16 12:20:27;;;;;;;10.32;4.45;;;;;;;;;;5111628;28;20047;-74
2022/06/16 12:22:53;;;;;;;;;;;;;;;;;;5111193;28;20044;-76
2022/06/16 12:25:35;;;;;;;11.38;4.88;;;;;;;;;;5111701;28;19934;-80
2022/06/16 12:28:13;;;;;;;17.23;4.70;;;;;;;;;;5111298;28;20580;-74
2022/06/16 12:30:41;;;;;;;9.75;3.63;;;;;;;;;;5112140;28;20040;-74
2022/06/16 12:33:21;;;;;;;10.95;4.35;;;;;;;;;;5111893;28;20039;-76
2022/06/16 12:35:52;;;;;;;9.98;3.88;;;;;;;;;;5111983;28;20093;-77
2022/06/16 12:38:18;;;;;;;9.50;4.05;;;;;;;;;;5111458;28;20066;-75
2022/06/16 12:40:44;;;;;;;;;;;;;;;;;;5111533;28;20056;-75
2022/06/16 12:43:14;;;;;;;12.98;4.30;;;;;;;;;;5111370;28;19920;-76
2022/06/16 12:45:46;;;;;;;11.82;4.47;;;;;;;;;;5112101;28;20108;-78
2022/06/16 12:48:15;;;;;;;10.45;4.63;;;;;;;;;;5093589;28;20051;-76
2022/06/16 12:50:49;;;;;;;12.65;4.50;;;;;;;;;;5111055;28;20047;-75
2022/06/16 12:53:29;;;;;;;10.43;3.47;;;;;;;;;;5111617;28;20043;-75
2022/06/16 12:56:21;;;;;;;11.63;5.00;;;;;;;;;;5091570;28;20058;-74
2022/06/16 12:59:06;;;;;;;11.70;4.95;;;;;;;;;;5107488;28;20051;-75
2022/06/16 13:01:33;;;;;;;14.98;4.90;;;;;;;;;;5110636;28;20043;-74
2022/06/16 13:04:05;;;;;;;12.15;4.30;;;;;;;;;;5091407;28;20047;-75
2022/06/16 13:06:32;;;;;;;11.07;4.45;;;;;;;;;;5111619;28;20550;-74
2022/06/16 13:09:00;;;;;;;10.85;4.47;;;;;;;;;;5110950;28;20171;-76
2022/06/16 13:11:31;;;;;;;12.85;5.28;;;;;;;;;;5110798;28;20043;-74
2022/06/16 13:14:00;;;;;;;10.23;4.38;;;;;;;;;;5110862;28;20043;-74
2022/06/16 13:16:29;;;;;;;10.27;4.05;;;;;;;;;;5110042;28;20479;-78
2022/06/16 13:19:05;;;;;;;10.85;4.40;;;;;;;;;;5109634;28;20508;-79
2022/06/16 13:21:35;;;;;;;11.05;4.57;;;;;;;;;;5092264;28;20464;-78
2022/06/16 13:24:04;;;;;;;15.55;4.80;;;;;;;;;;5110238;28;20067;-76
2022/06/16 13:26:38;;;;;;;11.10;4.00;;;;;;;;;;5076159;28;20184;-76
2022/06/16 13:29:15;;;;;;;11.30;4.30;;;;;;;;;;5110292;28;20040;-75
2022/06/16 13:31:46;;;;;;;10.60;4.55;;;;;;;;;;5110526;28;20087;-80
2022/06/16 13:34:12;;;;;;;10.95;4.00;;;;;;;;;;5110245;28;20120;-74
2022/06/16 13:36:38;;;;;;;;;;;;;;;;;;5093086;28;20126;-74
2022/06/16 13:39:05;;;;;;;11.68;4.80;;;;;;;;;;5109015;28;20057;-78
2022/06/16 13:41:41;;;;;;;10.88;4.95;;;;;;;;;;5091189;28;20598;-75
2022/06/16 13:44:15;;;;;;;17.23;4.75;;;;;;;;;;5089807;28;20044;-71
2022/06/16 13:46:56;;;;;;;13.43;4.40;;;;;;;;;;5109426;28;20150;-80
2022/06/16 13:49:43;;;;;;;11.35;4.45;;;;;;;;;;5109460;28;20047;-75
2022/06/16 13:52:12;;;;;;;11.60;4.10;;;;;;;;;;5105975;28;20066;-79
2022/06/16 13:54:39;;;;;;;11.85;4.40;;;;;;;;;;5108276;28;20340;-77
2022/06/16 13:57:17;;;;;;;10.02;4.05;;;;;;;;;;5107673;28;20040;-80
2022/06/16 13:59:43;;;;;;;10.57;4.05;;;;;;;;;;5090159;28;20503;-81
2022/06/16 14:02:12;;;;;;;12.25;4.35;;;;;;;;;;5090436;28;20077;-76
2022/06/16 14:05:06;;;;;;;10.38;3.92;;;;;;;;;;5090448;28;20039;-81
2022/06/16 14:07:32;;;;;;;11.57;4.38;;;;;;;;;;5108195;28;20052;-76
2022/06/16 14:10:17;;;;;;;12.77;4.60;;;;;;;;;;5107981;28;20043;-76
2022/06/16 14:12:55;;;;;;;10.90;4.00;;;;;;;;;;5108599;28;20139;-76
2022/06/16 14:15:42;;;;;;;11.07;4.57;;;;;;;;;;5107822;28;20115;-77
2022/06/16 14:18:15;;;;;;;10.50;4.18;;;;;;;;;;5072605;28;20059;-76
2022/06/16 14:20:42;;;;;;;13.40;4.75;;;;;;;;;;5107949;28;20047;-76
2022/06/16 14:23:17;;;;;;;11.45;4.32;;;;;;;;;;5109079;28;20112;-74
2022/06/16 14:25:48;;;;;;;12.70;3.85;;;;;;;;;;5107463;28;20214;-79
2022/06/16 14:28:22;;;;;;;10.88;4.25;;;;;;;;;;5088441;28;20101;-75
2022/06/16 14:30:55;;;;;;;9.75;3.70;;;;;;;;;;5089403;28;20044;-78
2022/06/16 14:33:30;;;;;;;12.20;4.55;;;;;;;;;;5103061;28;20050;-76
2022/06/16 14:36:07;;;;;;;10.70;3.95;;;;;;;;;;5099588;28;20066;-71
2022/06/16 14:38:42;;;;;;;11.25;4.22;;;;;;;;;;5091105;28;20135;-76
2022/06/16 14:41:13;;;;;;;14.27;3.80;;;;;;;;;;5087726;28;20127;-77
2022/06/16 14:43:44;;;;;;;14.35;4.20;;;;;;;;;;5105538;28;20048;-71
2022/06/16 14:46:17;;;;;;;9.40;3.95;;;;;;;;;;5098363;28;20040;-72
2022/06/16 14:48:45;;;;;;;12.13;4.53;;;;;;;;;;5068835;28;20368;-71
2022/06/16 14:51:14;;;;;;;10.10;3.92;;;;;;;;;;5086896;28;20143;-71
2022/06/16 14:53:58;;;;;;;12.27;5.20;;;;;;;;;;5071639;28;20035;-73
2022/06/16 14:56:25;;;;;;;10.18;4.13;;;;;;;;;;5105392;28;20047;-72
2022/06/16 14:58:57;;;;;;;10.90;4.13;;;;;;;;;;5109222;28;20050;-71
2022/06/16 15:01:31;;;;;;;12.02;4.15;;;;;;;;;;5104534;28;20047;-72
2022/06/16 15:03:58;;;;;;;11.00;4.32;;;;;;;;;;5084366;28;20040;-72
2022/06/16 15:06:25;;;;;;;10.35;4.00;;;;;;;;;;5088058;28;20134;-72
2022/06/16 15:08:59;;;;;;;11.60;4.00;;;;;;;;;;5087583;28;20044;-72
2022/06/16 15:11:26;;;;;;;11.60;3.80;;;;;;;;;;5087484;28;20097;-72
2022/06/16 15:13:53;;;;;;;11.75;4.63;;;;;;;;;;5089385;28;20066;-72
2022/06/16 15:19:11;;;;;;;11.93;4.15;;;;;;;;;;5088817;28;20102;-72
2022/06/16 15:21:37;;;;;;;10.10;4.10;;;;;;;;;;5087902;28;20087;-73
2022/06/16 15:24:04;;;;;;;15.40;4.30;;;;;;;;;;5070393;28;20043;-72
2022/06/16 15:26:33;;;;;;;14.23;4.60;;;;;;;;;;5088994;28;20044;-71
2022/06/16 15:28:59;;;;;;;;;;;;;;;;;;5090497;28;20124;-71
2022/06/16 15:31:33;;;;;;;11.48;4.00;;;;;;;;;;5105867;28;20044;-71
2022/06/16 15:36:51;;;;;;;10.30;4.00;;;;;;;;;;5110149;28;20148;-71
2022/06/16 15:39:19;;;;;;;10.48;4.30;;;;;;;;;;5063197;28;20101;-72
2022/06/16 15:41:47;;;;;;;12.35;4.35;;;;;;;;;;5091809;28;20056;-72
2022/06/16 15:44:36;;;;;;;11.32;3.92;;;;;;;;;;5091428;28;20352;-72
2022/06/16 15:47:06;;;;;;;14.10;4.70;;;;;;;;;;5085450;28;20048;-72
2022/06/16 15:49:35;;;;;;;12.27;4.13;;;;;;;;;;5097485;28;20046;-72
2022/06/16 15:52:02;;;;;;;13.10;5.38;;;;;;;;;;5099421;28;20043;-72
2022/06/16 15:54:30;;;;;;;13.15;4.15;;;;;;;;;;5098270;28;20075;-72
2022/06/16 15:56:57;;;;;;;10.40;3.83;;;;;;;;;;5109461;28;20050;-72
2022/06/16 15:59:23;;;;;;;10.25;4.32;;;;;;;;;;5108184;28;20043;-71
2022/06/16 16:01:51;;;;;;;10.55;4.28;;;;;;;;;;5097105;28;20048;-71
2022/06/16 16:04:22;;;;;;;12.52;4.18;;;;;;;;;;5093034;28;20477;-72
2022/06/16 16:06:49;;;;;;;11.95;4.25;;;;;;;;;;5078228;28;20043;-71
2022/06/16 16:09:17;;;;;;;12.73;4.47;;;;;;;;;;5103576;28;20052;-72
2022/06/16 16:11:43;;;;;;;10.73;4.53;;;;;;;;;;5105289;28;20163;-70
2022/06/16 16:14:15;;;;;;;9.60;3.60;;;;;;;;;;5092229;28;20044;-75
2022/06/16 16:16:57;;;;;;;10.35;4.07;;;;;;;;;;5104466;27;20487;-72
2022/06/16 16:19:24;;;;;;;14.07;4.80;;;;;;;;;;5100880;28;20044;-72
2022/06/16 16:21:57;;;;;;;10.77;4.10;;;;;;;;;;5093898;28;20043;-71
2022/06/16 16:24:27;;;;;;;10.63;4.07;;;;;;;;;;5129989;27;20058;-71
2022/06/16 16:26:58;;;;;;;13.40;4.60;;;;;;;;;;5114726;27;20494;-72
2022/06/16 16:29:25;;;;;;;11.90;4.35;;;;;;;;;;5093902;28;20467;-72
2022/06/16 16:31:54;;;;;;;12.48;4.70;;;;;;;;;;5110184;28;20393;-69
2022/06/16 16:34:31;;;;;;;10.35;4.05;;;;;;;;;;5109059;27;20044;-68
2022/06/16 16:37:08;;;;;;;12.85;4.75;;;;;;;;;;5095043;28;20479;-69